Карточка аэропорта UMBB

Внимание!
Информация на этой странице в стадии наполнения.
Если вы не увидели какой-то информации, или заметили неточность - пожалуйста сообщите нам!
Спасибо!
Команда RU-STAFF
Название аэропортаBrest
Название аэропорта (англ.)Brest
Превышение469 ft. (143 m.)
Координаты52°6.498', 23°53.784'
Высота перехода6000 ft
Эшелон переходаFL80; QNH<977hPa - FL90
Коды ответчика0035
Зона ОрВДМинск РПИ (UMMV)
Данные METARUMBB 040750Z 03005G08MPS 9000 OVC030CB M02/M05 Q1018 NOSIG
Проноз погоды (TAF)
NOTAMshow/hide NOTAM
AWOS   TABLE

Информация о ВПП

ВПП Длина ВПП (м.) Покрытие Курс ВПП Частота ILS
292620Цементобетон287110.3
112620Цементобетон107 

Диспетчерские позиции


Сценарии

Сценарий
Нет результатов.


Спутниковое изображение